Time;durP1;ratioP1;P1;durP2;ratioP2;P2;SDS_P1;SDS_P2;PMS_P1;PMS_P2;Temp;Humidity;BMP_temperature;BMP_pressure;BME280_temperature;BME280_humidity;BME280_pressure;Samples;Min_cycle;Max_cycle;Signal;HPM_P1;HPM_P2
2022/10/06 00:00:46;;;;;;;6.82;3.62;;;;;;;14.74;100.00;99297.63;4265409;33;20092;-70
2022/10/06 00:03:30;;;;;;;8.25;2.80;;;;;;;14.51;100.00;99256.41;4264866;33;20100;-70
2022/10/06 00:06:01;;;;;;;7.28;3.62;;;;;;;13.90;100.00;99253.59;4266508;33;20092;-70
2022/10/06 00:08:29;;;;;;;6.70;3.00;;;;;;;14.94;100.00;99301.44;4264885;33;20105;-70
2022/10/06 00:10:56;;;;;;;11.32;3.35;;;;;;;14.22;100.00;99258.03;4267446;33;20478;-70
2022/10/06 00:13:24;;;;;;;6.32;3.30;;;;;;;14.72;100.00;99297.09;4264616;33;20184;-70
2022/10/06 00:15:51;;;;;;;11.18;3.35;;;;;;;14.67;100.00;99297.09;4266546;33;20067;-70
2022/10/06 00:18:17;;;;;;;5.05;3.28;;;;;;;14.04;100.00;99252.03;4266317;33;20064;-70
2022/10/06 00:20:43;;;;;;;12.18;3.50;;;;;;;14.15;100.00;99247.41;4280945;33;20439;-70
2022/10/06 00:23:10;;;;;;;11.27;4.00;;;;;;;14.06;100.00;99254.47;4263397;33;20041;-71
2022/10/06 00:25:36;;;;;;;10.10;3.78;;;;;;;14.44;100.00;99276.72;4249808;33;20081;-71
2022/10/06 00:28:03;;;;;;;12.15;4.62;;;;;;;14.29;100.00;99239.59;4253131;33;20049;-71
2022/10/06 00:30:32;;;;;;;10.88;3.42;;;;;;;14.44;100.00;99261.28;4279947;33;20062;-71
2022/10/06 00:33:02;;;;;;;15.38;3.15;;;;;;;13.91;100.00;99288.53;4237831;33;20037;-73
2022/10/06 00:35:33;;;;;;;4.80;2.78;;;;;;;14.37;100.00;99287.81;4237355;33;20062;-71
2022/10/06 00:38:00;;;;;;;10.73;2.97;;;;;;;14.68;100.00;99279.78;4209691;34;20044;-71
2022/10/06 00:40:27;;;;;;;9.68;3.20;;;;;;;14.22;100.00;99280.47;4223524;33;20094;-70
2022/10/06 00:43:01;;;;;;;6.55;3.58;;;;;;;13.84;100.00;99246.53;4222141;33;20471;-75
2022/10/06 00:45:33;;;;;;;4.97;2.90;;;;;;;14.26;100.00;99276.16;4213629;34;20088;-71
2022/10/06 00:48:06;;;;;;;3.12;2.62;;;;;;;14.37;100.00;99276.97;4192924;34;21451;-71
2022/10/06 00:50:34;;;;;;;3.47;2.95;;;;;;;13.94;100.00;99219.50;4189028;34;20081;-75
2022/10/06 00:53:01;;;;;;;9.70;3.28;;;;;;;14.47;100.00;99271.59;4195981;34;20332;-71
2022/10/06 00:55:29;;;;;;;9.70;3.10;;;;;;;14.15;100.00;99275.34;4214875;34;20054;-71
2022/10/06 00:57:56;;;;;;;6.45;3.67;;;;;;;14.05;100.00;99237.38;4224794;33;20085;-70
2022/10/06 01:00:22;;;;;;;9.63;3.30;;;;;;;14.34;100.00;99277.53;4221923;33;20060;-74
2022/10/06 01:02:56;;;;;;;7.37;2.92;;;;;;;14.39;100.00;99277.56;4221961;33;20038;-71
2022/10/06 01:05:29;;;;;;;6.40;2.95;;;;;;;14.36;100.00;99269.97;4238456;33;20038;-70
2022/10/06 01:07:56;;;;;;;5.12;4.18;;;;;;;14.01;100.00;99236.31;4239060;33;20041;-70
2022/10/06 01:10:22;;;;;;;18.12;4.20;;;;;;;14.20;100.00;99279.94;4251260;33;20038;-75
2022/10/06 01:12:49;;;;;;;5.75;3.20;;;;;;;14.38;100.00;99273.22;4253120;33;20034;-70
2022/10/06 01:15:15;;;;;;;8.65;3.20;;;;;;;13.86;100.00;99233.56;4270653;33;20053;-71
2022/10/06 01:17:56;;;;;;;4.20;2.92;;;;;;;14.51;100.00;99274.56;4266989;33;20059;-70
2022/10/06 01:20:23;;;;;;;14.73;3.40;;;;;;;14.30;100.00;99266.41;4289030;33;20059;-72
2022/10/06 01:22:54;;;;;;;4.97;2.90;;;;;;;14.32;100.00;99274.28;4282081;33;20679;-70
2022/10/06 01:25:21;;;;;;;11.07;3.03;;;;;;;14.37;100.00;99271.56;4284685;33;20046;-70
2022/10/06 01:27:52;;;;;;;5.90;3.12;;;;;;;14.24;100.00;99248.53;4294311;33;20355;-70
2022/10/06 01:30:30;;;;;;;9.20;4.18;;;;;;;14.15;100.00;99274.50;4294310;33;20063;-75
2022/10/06 01:32:57;;;;;;;6.07;3.05;;;;;;;14.14;100.00;99262.88;4309106;33;20104;-70
2022/10/06 01:35:23;;;;;;;6.03;3.00;;;;;;;13.95;100.00;99235.47;4295286;33;20022;-69
2022/10/06 01:37:49;;;;;;;5.35;2.90;;;;;;;13.93;100.00;99234.13;4306025;33;20055;-70
2022/10/06 01:40:16;;;;;;;12.30;3.25;;;;;;;13.95;100.00;99275.28;4308772;33;20102;-72
2022/10/06 01:42:45;;;;;;;6.28;3.15;;;;;;;13.91;100.00;99222.72;4305388;33;20457;-70
2022/10/06 01:45:11;;;;;;;4.82;2.90;;;;;;;14.03;100.00;99228.72;4295090;33;20069;-70
2022/10/06 01:47:38;;;;;;;9.90;3.17;;;;;;;14.07;100.00;99267.72;4295847;33;20434;-70
2022/10/06 01:50:06;;;;;;;7.00;2.92;;;;;;;13.96;100.00;99223.56;4302195;33;20088;-70
2022/10/06 01:52:33;;;;;;;6.70;3.33;;;;;;;14.30;100.00;99254.78;4294444;33;20362;-71
2022/10/06 01:55:00;;;;;;;5.60;2.92;;;;;;;14.06;100.00;99227.38;4307993;33;20090;-71
2022/10/06 01:57:27;;;;;;;3.45;3.03;;;;;;;14.36;100.00;99264.53;4311607;33;20116;-70
2022/10/06 01:59:53;;;;;;;13.25;2.90;;;;;;;13.63;100.00;99241.06;4311171;33;20050;-70
2022/10/06 02:02:20;;;;;;;5.15;3.00;;;;;;;13.76;100.00;99272.22;4311690;33;20098;-70
2022/10/06 02:04:46;;;;;;;4.50;2.92;;;;;;;13.95;100.00;99280.69;4286752;33;20073;-72
2022/10/06 02:07:13;;;;;;;4.53;2.80;;;;;;;13.91;100.00;99268.75;4282759;33;20045;-70
2022/10/06 02:09:40;;;;;;;4.05;3.03;;;;;;;13.78;100.00;99222.16;4294655;33;20383;-70
2022/10/06 02:12:07;;;;;;;3.05;2.70;;;;;;;14.22;100.00;99237.16;4294131;33;20088;-71
2022/10/06 02:14:38;;;;;;;4.97;2.55;;;;;;;13.86;100.00;99236.25;4291980;33;20500;-76
2022/10/06 02:17:05;;;;;;;3.28;2.62;;;;;;;14.32;100.00;99236.34;4293885;33;20078;-71
2022/10/06 02:19:32;;;;;;;9.30;2.72;;;;;;;14.24;100.00;99275.59;4293910;33;20040;-71
2022/10/06 02:21:58;;;;;;;3.80;2.80;;;;;;;14.23;100.00;99282.13;4294532;33;20037;-70
2022/10/06 02:24:25;;;;;;;3.03;2.37;;;;;;;14.26;100.00;99286.19;4294404;33;20059;-76
2022/10/06 02:26:52;;;;;;;11.65;2.95;;;;;;;14.13;100.00;99282.88;4293093;33;20062;-71
2022/10/06 02:29:19;;;;;;;10.15;2.80;;;;;;;14.05;100.00;99242.00;4284256;33;20054;-70
2022/10/06 02:31:46;;;;;;;9.73;3.15;;;;;;;14.15;100.00;99253.66;4281936;33;20041;-70
2022/10/06 02:34:12;;;;;;;4.53;3.33;;;;;;;14.68;100.00;99279.78;4282243;33;20034;-71
2022/10/06 02:36:39;;;;;;;7.20;3.05;;;;;;;14.48;100.00;99286.75;4282177;33;20063;-75
2022/10/06 02:39:05;;;;;;;4.97;2.67;;;;;;;14.57;100.00;99287.03;4285173;33;20075;-70
2022/10/06 02:41:31;;;;;;;5.32;2.50;;;;;;;14.71;100.00;99295.50;4288111;33;20160;-70
2022/10/06 02:43:58;;;;;;;8.43;3.50;;;;;;;14.54;100.00;99272.13;4294515;33;20072;-71
2022/10/06 02:46:24;;;;;;;3.15;2.67;;;;;;;14.56;100.00;99287.31;4282006;33;20046;-71
2022/10/06 02:48:52;;;;;;;20.60;3.87;;;;;;;14.63;100.00;99274.31;4269953;33;20025;-71
2022/10/06 02:51:22;;;;;;;6.07;2.83;;;;;;;14.90;100.00;99293.03;4266753;33;20053;-72
2022/10/06 02:53:49;;;;;;;6.32;2.22;;;;;;;14.79;100.00;99294.13;4268854;33;20132;-69
2022/10/06 02:56:21;;;;;;;4.28;2.80;;;;;;;14.40;100.00;99298.13;4268445;33;20100;-70
2022/10/06 02:58:49;;;;;;;4.43;2.75;;;;;;;14.65;100.00;99300.09;4267809;33;20079;-74
2022/10/06 03:01:20;;;;;;;4.68;2.83;;;;;;;14.53;100.00;99265.09;4267874;33;20119;-70
2022/10/06 03:03:47;;;;;;;2.97;2.65;;;;;;;14.59;100.00;99294.91;4257440;33;20065;-70
2022/10/06 03:06:23;;;;;;;2.97;2.78;;;;;;;14.46;100.00;99269.97;4244385;33;20512;-70
2022/10/06 03:08:53;;;;;;;7.32;3.80;;;;;;;14.94;100.00;99302.25;4244406;33;20231;-71
2022/10/06 03:11:23;;;;;;;3.35;2.92;;;;;;;14.91;100.00;99304.72;4281823;33;20099;-71
2022/10/06 03:13:51;;;;;;;8.13;3.03;;;;;;;14.54;100.00;99272.13;4282857;33;20042;-70
2022/10/06 03:16:23;;;;;;;10.13;4.75;;;;;;;14.57;100.00;99270.78;4266646;33;20069;-70
2022/10/06 03:18:52;;;;;;;7.80;3.45;;;;;;;14.46;100.00;99307.87;4270687;33;20073;-71
2022/10/06 03:21:22;;;;;;;6.50;3.45;;;;;;;14.53;100.00;99264.28;4272680;33;20046;-71
2022/10/06 03:23:50;;;;;;;4.50;3.08;;;;;;;14.70;100.00;99302.00;4270676;33;20038;-71
2022/10/06 03:26:19;;;;;;;28.75;8.50;;;;;;;14.45;100.00;99268.31;4256971;33;20385;-71
2022/10/06 03:28:46;;;;;;;12.48;5.28;;;;;;;14.52;100.00;99309.53;4255990;33;20049;-71
2022/10/06 03:31:13;;;;;;;67.85;20.27;;;;;;;14.70;100.00;99312.81;4257686;33;20404;-71
2022/10/06 03:33:40;;;;;;;61.20;20.40;;;;;;;14.50;100.00;99281.91;4258450;33;20109;-71
2022/10/06 03:36:18;;;;;;;19.35;8.13;;;;;;;14.61;100.00;99317.16;4255492;33;20104;-73
2022/10/06 03:38:46;;;;;;;12.57;3.53;;;;;;;14.74;100.00;99308.47;4246957;33;20034;-71
2022/10/06 03:41:18;;;;;;;9.80;3.75;;;;;;;14.65;100.00;99327.19;4251165;33;20207;-71
2022/10/06 03:43:48;;;;;;;10.93;4.97;;;;;;;14.58;100.00;99320.38;4259625;33;20440;-71
2022/10/06 03:46:18;;;;;;;11.93;4.72;;;;;;;14.45;100.00;99310.88;4243471;33;20049;-70
2022/10/06 03:48:47;;;;;;;20.00;7.60;;;;;;;14.51;100.00;99324.16;4243472;33;20038;-71
2022/10/06 03:51:28;;;;;;;36.08;10.93;;;;;;;14.35;100.00;99276.44;4242645;33;20101;-70
2022/10/06 03:53:56;;;;;;;38.90;13.43;;;;;;;14.52;100.00;99320.38;4242816;33;20170;-70
2022/10/06 03:56:27;;;;;;;17.33;4.97;;;;;;;14.17;100.00;99262.34;4235421;33;20388;-74
2022/10/06 03:58:55;;;;;;;12.40;4.65;;;;;;;14.46;100.00;99332.28;4239554;33;20096;-70
2022/10/06 04:01:25;;;;;;;18.42;4.80;;;;;;;14.33;100.00;99297.56;4227337;33;20046;-70
2022/10/06 04:03:54;;;;;;;5.20;3.70;;;;;;;14.48;100.00;99343.66;4227572;33;20035;-70
2022/10/06 04:06:20;;;;;;;8.75;4.65;;;;;;;14.43;100.00;99335.50;4229456;33;20063;-75
2022/10/06 04:08:49;;;;;;;8.10;4.37;;;;;;;14.42;100.00;99336.59;4240526;33;20062;-70
2022/10/06 04:11:22;;;;;;;16.48;5.15;;;;;;;14.44;100.00;99331.72;4240120;33;20116;-70
2022/10/06 04:13:59;;;;;;;7.50;3.60;;;;;;;14.40;100.00;99336.03;4225542;33;20061;-70
2022/10/06 04:16:34;;;;;;;13.20;4.30;;;;;;;13.99;100.00;99314.25;4226932;33;20080;-70
2022/10/06 04:19:05;;;;;;;13.40;7.68;;;;;;;14.28;100.00;99362.53;4241795;33;20429;-71
2022/10/06 04:21:37;;;;;;;4.70;3.72;;;;;;;14.21;100.00;99359.28;4253023;33;20061;-71
2022/10/06 04:24:06;;;;;;;9.48;4.03;;;;;;;14.23;100.00;99357.94;4268771;33;20068;-74
2022/10/06 04:26:37;;;;;;;13.90;7.25;;;;;;;14.10;100.00;99329.44;4281832;33;20049;-70
2022/10/06 04:29:03;;;;;;;11.45;5.32;;;;;;;14.29;100.00;99328.97;4281033;33;20029;-71
2022/10/06 04:31:35;;;;;;;13.05;5.28;;;;;;;13.96;100.00;99307.50;4278718;33;20052;-71
2022/10/06 04:34:12;;;;;;;5.18;3.53;;;;;;;13.95;100.00;99340.25;4274360;33;20045;-71
2022/10/06 04:36:40;;;;;;;12.88;4.40;;;;;;;13.86;100.00;99329.09;4266847;33;20483;-70
2022/10/06 04:39:09;;;;;;;16.42;6.25;;;;;;;14.01;100.00;99366.25;4266422;33;20092;-70
2022/10/06 04:41:38;;;;;;;24.05;8.60;;;;;;;14.08;100.00;99372.22;4266656;33;20029;-70
2022/10/06 04:44:06;;;;;;;10.90;4.80;;;;;;;14.61;100.00;99374.06;4288548;33;20044;-70
2022/10/06 04:46:33;;;;;;;8.88;4.60;;;;;;;14.05;100.00;99375.47;4280835;33;20518;-70
2022/10/06 04:49:00;;;;;;;12.25;4.68;;;;;;;14.26;100.00;99381.78;4281427;33;20359;-70
2022/10/06 04:51:27;;;;;;;10.45;6.07;;;;;;;14.17;100.00;99348.97;4259491;33;20076;-70
2022/10/06 04:53:54;;;;;;;4.20;3.75;;;;;;;14.15;100.00;99386.34;4254459;33;20046;-71
2022/10/06 04:56:24;;;;;;;5.72;4.12;;;;;;;14.19;100.00;99399.37;4256680;33;20152;-70
2022/10/06 04:58:53;;;;;;;18.75;7.57;;;;;;;14.18;100.00;99390.41;4255986;33;20089;-71
2022/10/06 05:01:23;;;;;;;7.00;4.32;;;;;;;14.13;100.00;99353.28;4253192;33;20055;-70
2022/10/06 05:03:52;;;;;;;11.88;5.30;;;;;;;13.87;100.00;99357.00;4249558;33;20076;-70
2022/10/06 05:06:21;;;;;;;7.87;4.68;;;;;;;14.10;100.00;99369.25;4266754;33;20098;-70
2022/10/06 05:08:50;;;;;;;5.00;3.78;;;;;;;14.44;100.00;99380.50;4266951;33;20060;-71
2022/10/06 05:11:17;;;;;;;5.87;3.58;;;;;;;14.16;100.00;99355.47;4265294;33;20114;-71
2022/10/06 05:13:45;;;;;;;10.88;4.95;;;;;;;14.19;100.00;99356.03;4256780;33;20043;-71
2022/10/06 05:16:14;;;;;;;15.38;4.37;;;;;;;14.58;100.00;99396.25;4236301;33;20750;-70
2022/10/06 05:18:42;;;;;;;6.82;4.10;;;;;;;14.20;100.00;99369.31;4237166;33;20038;-70
2022/10/06 05:21:14;;;;;;;10.60;4.47;;;;;;;14.45;100.00;99406.50;4248844;33;20360;-70
2022/10/06 05:23:42;;;;;;;19.83;4.15;;;;;;;14.11;100.00;99409.59;4243397;33;20079;-74
2022/10/06 05:26:12;;;;;;;6.85;3.50;;;;;;;14.31;100.00;99413.47;4237853;33;20847;-70
2022/10/06 05:28:38;;;;;;;12.13;4.25;;;;;;;13.95;100.00;99380.84;4237999;33;20307;-69
2022/10/06 05:31:27;;;;;;;12.75;4.32;;;;;;;14.34;100.00;99412.94;4236141;33;20034;-70
2022/10/06 05:33:55;;;;;;;5.18;4.00;;;;;;;14.51;100.00;99432.53;4224286;33;21024;-70
2022/10/06 05:36:24;;;;;;;9.93;3.87;;;;;;;13.94;100.00;99392.75;4223814;33;20035;-70
2022/10/06 05:38:51;;;;;;;5.40;3.92;;;;;;;14.05;100.00;99437.72;4243304;33;20055;-71
2022/10/06 05:41:20;;;;;;;9.18;3.58;;;;;;;14.50;100.00;99436.34;4250899;33;20178;-74
2022/10/06 05:43:47;;;;;;;7.15;4.45;;;;;;;14.70;100.00;99437.50;4228660;33;20119;-70
2022/10/06 05:46:23;;;;;;;9.70;3.92;;;;;;;14.24;100.00;99407.50;4223455;33;20106;-70
2022/10/06 05:48:54;;;;;;;8.07;4.07;;;;;;;14.50;100.00;99411.94;4236171;33;20046;-70
2022/10/06 05:51:22;;;;;;;16.05;4.50;;;;;;;13.76;100.00;99370.44;4234228;33;20098;-70
2022/10/06 05:53:49;;;;;;;9.38;4.20;;;;;;;14.28;100.00;99425.69;4232816;33;20038;-70
2022/10/06 05:56:19;;;;;;;13.82;4.55;;;;;;;14.83;100.00;99461.38;4248637;33;20055;-70
2022/10/06 05:58:47;;;;;;;7.53;3.83;;;;;;;15.05;100.00;99460.34;4288586;33;20033;-69
2022/10/06 06:01:22;;;;;;;10.52;5.50;;;;;;;14.17;100.00;99430.22;4283181;33;20063;-70
2022/10/06 06:03:59;;;;;;;14.60;4.60;;;;;;;15.06;100.00;99472.81;4287923;33;20107;-69
2022/10/06 06:06:28;;;;;;;5.90;4.20;;;;;;;15.09;100.00;99480.41;4286616;33;20051;-70
2022/10/06 06:09:07;;;;;;;13.27;5.35;;;;;;;15.13;100.00;99478.00;4286513;33;20072;-69
2022/10/06 06:11:36;;;;;;;8.52;4.32;;;;;;;15.43;100.00;99488.06;4290869;33;20379;-70
2022/10/06 06:14:06;;;;;;;15.45;5.53;;;;;;;15.40;100.00;99478.56;4290630;33;20328;-70
2022/10/06 06:16:34;;;;;;;7.05;4.28;;;;;;;15.41;100.00;99485.63;4303489;33;20067;-75
2022/10/06 06:19:01;;;;;;;13.40;4.82;;;;;;;15.37;100.00;99459.31;4303277;33;20074;-70
2022/10/06 06:21:28;;;;;;;6.60;4.20;;;;;;;15.08;100.00;99505.91;4302597;33;20053;-70
2022/10/06 06:23:55;;;;;;;12.63;4.30;;;;;;;15.24;100.00;99512.19;4303923;33;20066;-69
2022/10/06 06:26:24;;;;;;;7.50;4.47;;;;;;;15.26;100.00;99504.59;4304063;33;20049;-69
2022/10/06 06:28:53;;;;;;;9.32;4.57;;;;;;;15.30;100.00;99513.00;4301070;33;20049;-76
2022/10/06 06:31:28;;;;;;;13.07;4.05;;;;;;;15.52;100.00;99502.69;4302778;33;20084;-70
2022/10/06 06:33:57;;;;;;;10.13;3.85;;;;;;;15.79;100.00;99496.22;4315539;33;20417;-69
2022/10/06 06:36:28;;;;;;;7.78;4.18;;;;;;;15.58;100.00;99520.63;4309548;33;20371;-75
2022/10/06 06:38:56;;;;;;;6.12;3.65;;;;;;;15.77;100.00;99536.41;4309034;33;20088;-67
2022/10/06 06:41:28;;;;;;;9.27;3.90;;;;;;;15.69;100.00;99528.78;4305458;33;20052;-70
2022/10/06 06:43:57;;;;;;;11.38;3.67;;;;;;;15.19;100.00;99428.91;4272355;33;20063;-69
2022/10/06 06:46:25;;;;;;;9.23;3.92;;;;;;;15.73;100.00;99535.28;4270806;33;20093;-75
2022/10/06 06:48:54;;;;;;;6.87;3.83;;;;;;;15.80;100.00;99547.53;4271248;33;20054;-71
2022/10/06 06:51:22;;;;;;;9.02;4.15;;;;;;;15.86;100.00;99550.25;4270359;33;20045;-70
2022/10/06 06:53:50;;;;;;;10.68;3.53;;;;;;;16.10;100.00;99545.09;4272693;33;20079;-70
2022/10/06 06:56:17;;;;;;;7.78;3.62;;;;;;;16.20;100.00;99539.62;4268103;33;20050;-74
2022/10/06 06:58:47;;;;;;;11.52;4.43;;;;;;;16.03;100.00;99517.38;4271203;33;20124;-74
2022/10/06 07:01:17;;;;;;;15.43;4.25;;;;;;;16.06;100.00;99554.88;4268794;33;20231;-71
2022/10/06 07:03:49;;;;;;;6.40;3.80;;;;;;;16.14;100.00;99552.41;4271617;33;20104;-74
2022/10/06 07:06:16;;;;;;;7.72;3.95;;;;;;;16.23;100.00;99557.31;4272516;33;20038;-71
2022/10/06 07:08:46;;;;;;;3.42;3.12;;;;;;;16.48;100.00;99529.22;4272273;33;20142;-70
2022/10/06 07:11:18;;;;;;;13.62;3.60;;;;;;;16.34;100.00;99557.00;4275300;33;20042;-69
2022/10/06 07:13:49;;;;;;;5.65;3.28;;;;;;;16.78;100.00;99565.56;4274707;33;20371;-70
2022/10/06 07:27:25;;;;;;;12.60;3.80;;;;;;;17.01;100.00;99597.59;4300711;33;20040;-74
2022/10/06 07:29:53;;;;;;;8.43;3.50;;;;;;;16.69;100.00;99547.12;4301129;33;20385;-71
2022/10/06 07:32:29;;;;;;;6.97;3.75;;;;;;;17.05;100.00;99571.44;4296247;33;20037;-70
2022/10/06 07:34:57;;;;;;;14.02;3.70;;;;;;;17.11;100.00;99547.78;4314073;33;20505;-70
2022/10/06 07:37:25;;;;;;;5.82;3.00;;;;;;;17.36;100.00;99576.75;4310455;33;20206;-75
2022/10/06 07:39:52;;;;;;;7.75;3.42;;;;;;;17.21;100.00;99574.91;4313605;33;20066;-73
2022/10/06 07:42:21;;;;;;;7.28;3.83;;;;;;;16.95;100.00;99582.41;4309041;33;20086;-71
2022/10/06 07:47:37;;;;;;;14.27;4.65;;;;;;;16.81;100.00;99570.44;4311248;33;20080;-71
2022/10/06 07:50:06;;;;;;;10.02;3.33;;;;;;;17.54;100.00;99582.63;4302058;33;20032;-71
2022/10/06 07:52:35;;;;;;;9.20;3.90;;;;;;;17.54;100.00;99549.97;4303779;33;20390;-71
2022/10/06 07:55:04;;;;;;;8.57;3.03;;;;;;;17.45;100.00;99584.31;4304471;33;20029;-70
2022/10/06 07:57:34;;;;;;;3.87;3.08;;;;;;;17.71;100.00;99593.97;4306842;33;20044;-70
2022/10/06 08:00:04;;;;;;;14.63;3.10;;;;;;;17.59;100.00;99596.22;4301107;33;20530;-70
2022/10/06 08:02:38;;;;;;;7.95;3.40;;;;;;;18.04;100.00;99594.25;4307829;33;20051;-76
2022/10/06 08:05:07;;;;;;;10.48;3.00;;;;;;;17.99;100.00;99569.78;4302745;33;20083;-70
2022/10/06 08:07:40;;;;;;;13.68;4.37;;;;;;;17.91;100.00;99570.41;4294457;33;20036;-69
2022/10/06 08:10:07;;;;;;;11.80;2.90;;;;;;;17.91;100.00;99564.97;4295570;33;20053;-69
2022/10/06 08:12:36;;;;;;;4.75;3.20;;;;;;;17.56;100.00;99564.91;4295619;33;20448;-77
2022/10/06 08:15:05;;;;;;;2.78;2.58;;;;;;;17.75;100.00;99605.88;4293557;33;20098;-69
2022/10/06 08:17:34;;;;;;;6.87;3.00;;;;;;;18.11;100.00;99608.38;4293084;33;20059;-70
2022/10/06 08:20:03;;;;;;;5.12;3.25;;;;;;;18.08;100.00;99614.41;4294554;33;20059;-69
2022/10/06 08:22:29;;;;;;;7.72;3.53;;;;;;;18.26;100.00;99620.25;4293784;33;20137;-70
2022/10/06 08:24:56;;;;;;;5.35;3.53;;;;;;;18.23;100.00;99615.38;4292785;33;20394;-70
2022/10/06 08:27:29;;;;;;;3.35;3.00;;;;;;;18.23;100.00;99593.56;4279392;33;20080;-68
2022/10/06 08:29:56;;;;;;;7.03;2.42;;;;;;;18.48;100.00;99596.03;4280431;33;20076;-69
2022/10/06 08:32:23;;;;;;;6.18;2.92;;;;;;;18.67;100.00;99630.78;4277652;33;20458;-72
2022/10/06 08:34:50;;;;;;;9.27;3.17;;;;;;;18.73;100.00;99632.34;4280008;33;20066;-76
2022/10/06 08:37:22;;;;;;;3.22;2.55;;;;;;;19.06;100.00;99633.34;4279913;33;21567;-70
2022/10/06 08:39:50;;;;;;;8.60;2.83;;;;;;;18.92;100.00;99639.78;4280481;33;20463;-69
2022/10/06 08:42:31;;;;;;;4.47;3.33;;;;;;;18.93;100.00;99660.53;4281284;33;20030;-69
2022/10/06 08:45:29;;;;;;;12.30;3.28;;;;;;;19.35;100.00;99642.53;4271163;33;20091;-70
2022/10/06 08:47:55;;;;;;;6.50;2.87;;;;;;;19.63;100.00;99642.72;4263156;33;20025;-72
2022/10/06 08:50:26;;;;;;;4.12;2.55;;;;;;;19.91;100.00;99658.19;4265653;33;20034;-77
2022/10/06 08:53:10;;;;;;;6.78;2.87;;;;;;;19.93;100.00;99633.31;4266178;33;20372;-70
2022/10/06 08:55:47;;;;;;;5.05;2.37;;;;;;;19.73;100.00;99653.50;4265620;33;20089;-70
2022/10/06 08:58:36;;;;;;;2.53;2.33;;;;;;;19.81;100.00;99655.59;4259079;33;20085;-71
2022/10/06 09:01:08;;;;;;;8.95;2.50;;;;;;;20.18;100.00;99653.94;4270613;33;20086;-69
2022/10/06 09:03:36;;;;;;;12.82;2.47;;;;;;;20.51;100.00;99659.41;4274163;33;20042;-69
2022/10/06 09:06:18;;;;;;;5.30;2.30;;;;;;;20.56;100.00;99670.25;4272430;33;20391;-69
2022/10/06 09:08:58;;;;;;;5.95;1.98;;;;;;;20.61;100.00;99664.69;4286927;33;20371;-68
2022/10/06 09:11:54;;;;;;;5.25;2.50;;;;;;;20.92;100.00;99669.62;4276227;33;20224;-74
2022/10/06 09:14:46;;;;;;;4.40;2.10;;;;;;;21.20;100.00;99675.09;4272708;33;20067;-70
2022/10/06 09:17:36;;;;;;;4.55;2.10;;;;;;;20.94;100.00;99678.34;4270509;33;20045;-68
2022/10/06 09:20:10;;;;;;;2.65;2.20;;;;;;;20.92;100.00;99683.31;4270174;33;20159;-69
2022/10/06 09:22:38;;;;;;;4.55;2.25;;;;;;;21.09;100.00;99687.38;4253798;33;20045;-75
2022/10/06 09:25:21;;;;;;;2.15;1.85;;;;;;;20.57;100.00;99701.16;4240369;33;20919;-69
2022/10/06 09:27:54;;;;;;;13.07;1.92;;;;;;;21.31;100.00;99692.94;4243109;33;20078;-69
2022/10/06 09:30:24;;;;;;;10.60;3.03;;;;;;;20.58;100.00;99705.50;4240802;33;20120;-74
2022/10/06 09:33:03;;;;;;;4.97;2.08;;;;;;;20.60;100.00;99711.47;4248270;33;20083;-69
2022/10/06 09:35:35;;;;;;;6.25;2.25;;;;;;;20.44;100.00;99691.81;4257046;33;20053;-69
2022/10/06 09:38:04;;;;;;;1.90;1.65;;;;;;;20.62;100.00;99715.56;4256136;33;20249;-72
2022/10/06 09:40:47;;;;;;;2.65;1.98;;;;;;;20.62;100.00;99726.50;4249927;33;20073;-69
2022/10/06 09:43:34;;;;;;;4.07;2.10;;;;;;;20.18;100.00;99727.75;4261401;33;20050;-70
2022/10/06 09:46:51;;;;;;;6.70;2.28;;;;;;;20.55;100.00;99730.72;4259977;33;20075;-69
2022/10/06 09:49:30;;;;;;;5.85;2.35;;;;;;;20.62;100.00;99731.97;4243549;33;20062;-70
2022/10/06 09:52:15;;;;;;;7.75;2.90;;;;;;;20.87;100.00;99732.69;4243415;33;20470;-70
2022/10/06 09:55:03;;;;;;;5.07;3.15;;;;;;;20.26;100.00;99656.00;4274770;33;20053;-71
2022/10/06 09:57:33;;;;;;;6.90;3.20;;;;;;;20.44;100.00;99741.84;4292084;33;20080;-70
2022/10/06 10:00:00;;;;;;;3.67;3.03;;;;;;;20.25;100.00;99747.34;4291246;33;20465;-71
2022/10/06 10:02:39;;;;;;;4.15;3.10;;;;;;;20.40;100.00;99756.41;4277380;33;20034;-68
2022/10/06 10:05:22;;;;;;;8.23;2.65;;;;;;;20.19;100.00;99734.84;4281881;33;20045;-69
2022/10/06 10:08:18;;;;;;;5.50;3.05;;;;;;;20.54;100.00;99768.22;4288462;33;20403;-74
2022/10/06 10:14:19;;;;;;;3.28;2.97;;;;;;;19.45;100.00;99746.19;4295279;33;20095;-69
2022/10/06 10:16:47;;;;;;;4.65;3.37;;;;;;;19.53;100.00;99767.41;4280668;33;20440;-76
2022/10/06 10:19:31;;;;;;;12.95;2.72;;;;;;;19.69;100.00;99765.28;4291318;33;20940;-68
2022/10/06 10:21:58;;;;;;;7.35;2.70;;;;;;;20.43;100.00;99767.56;4289493;33;20434;-68
2022/10/06 10:24:52;;;;;;;11.93;2.87;;;;;;;20.56;100.00;99766.00;4271406;33;20132;-74
2022/10/06 10:27:31;;;;;;;5.85;3.35;;;;;;;20.79;100.00;99763.44;4262696;33;20481;-69
2022/10/06 10:30:06;;;;;;;4.47;3.15;;;;;;;20.11;100.00;99774.59;4254351;33;20054;-70
2022/10/06 10:32:39;;;;;;;7.78;2.62;;;;;;;20.86;100.00;99780.31;4266622;33;21016;-70
2022/10/06 10:35:12;;;;;;;7.22;3.45;;;;;;;20.79;100.00;99768.94;4280445;33;20033;-70
2022/10/06 10:37:50;;;;;;;9.15;2.92;;;;;;;20.55;100.00;99747.13;4279626;33;20117;-75
2022/10/06 10:40:26;;;;;;;4.47;2.87;;;;;;;21.03;100.00;99766.06;4281217;33;20045;-69
2022/10/06 10:43:19;;;;;;;3.95;3.40;;;;;;;20.78;100.00;99781.00;4281289;33;20477;-69
2022/10/06 10:45:54;;;;;;;4.72;2.80;;;;;;;21.22;100.00;99771.44;4280061;33;21006;-68
2022/10/06 10:48:29;;;;;;;5.60;3.53;;;;;;;20.31;100.00;99754.34;4279469;33;20053;-68
2022/10/06 10:51:27;;;;;;;8.18;3.20;;;;;;;20.84;100.00;99785.28;4276868;33;20037;-69
2022/10/06 10:54:03;;;;;;;4.72;2.97;;;;;;;20.65;100.00;99823.63;4273418;33;20083;-69
2022/10/06 10:56:32;;;;;;;4.55;2.65;;;;;;;20.66;100.00;99804.19;4276786;33;20065;-70
2022/10/06 10:59:22;;;;;;;3.17;2.87;;;;;;;20.50;100.00;99797.25;4253062;33;20041;-70
2022/10/06 11:02:12;;;;;;;3.95;3.37;;;;;;;20.59;100.00;99791.94;4253658;33;20059;-72
2022/10/06 11:04:46;;;;;;;7.68;3.12;;;;;;;20.59;100.00;99795.50;4235457;33;20056;-72
2022/10/06 11:07:40;;;;;;;5.53;3.03;;;;;;;19.93;100.00;99655.97;4238764;33;20031;-69
2022/10/06 11:10:19;;;;;;;7.85;3.65;;;;;;;20.66;100.00;99774.06;4237518;33;20060;-69
2022/10/06 11:13:29;;;;;;;5.45;3.42;;;;;;;20.75;100.00;99795.28;4239948;33;20060;-68
2022/10/06 11:16:23;;;;;;;6.35;3.22;;;;;;;20.79;100.00;99763.44;4222603;33;20188;-70
2022/10/06 11:19:10;;;;;;;9.52;3.50;;;;;;;21.14;100.00;99802.25;4212375;34;20044;-69
2022/10/06 11:21:51;;;;;;;16.15;3.15;;;;;;;19.77;100.00;99774.78;4230017;33;20046;-69
2022/10/06 11:24:51;;;;;;;5.35;2.87;;;;;;;20.66;100.00;99817.84;4239275;33;20082;-69
2022/10/06 11:27:41;;;;;;;5.90;3.55;;;;;;;20.27;100.00;99820.88;4235913;33;20081;-75
2022/10/06 11:30:13;;;;;;;5.78;2.45;;;;;;;19.84;100.00;99816.22;4258844;33;20049;-72
2022/10/06 11:33:00;;;;;;;6.40;2.50;;;;;;;20.31;100.00;99814.50;4281147;33;20053;-70
2022/10/06 11:35:34;;;;;;;8.82;2.55;;;;;;;20.90;100.00;99808.72;4268852;33;20046;-69
2022/10/06 11:38:23;;;;;;;4.07;2.50;;;;;;;21.16;100.00;99827.44;4270704;33;20049;-69
2022/10/06 11:40:52;;;;;;;7.78;2.55;;;;;;;21.17;100.00;99812.63;4266489;33;20695;-68
2022/10/06 11:43:26;;;;;;;6.25;3.35;;;;;;;21.35;100.00;99825.44;4267520;33;20091;-69
2022/10/06 11:46:25;;;;;;;3.42;2.15;;;;;;;21.41;100.00;99818.75;4265770;33;20060;-69
2022/10/06 11:48:52;;;;;;;2.92;2.40;;;;;;;21.20;100.00;99833.91;4263994;33;20038;-69
2022/10/06 11:51:25;;;;;;;4.32;2.78;;;;;;;21.20;100.00;99828.44;4267220;33;20034;-70
2022/10/06 11:53:51;;;;;;;4.95;1.92;;;;;;;20.78;100.00;99847.47;4261762;33;20103;-70
2022/10/06 11:56:17;;;;;;;2.10;1.90;;;;;;;21.05;100.00;99841.28;4265621;33;20458;-69
2022/10/06 11:58:50;;;;;;;7.22;2.30;;;;;;;21.08;100.00;99841.78;4265441;33;20091;-68
2022/10/06 12:01:42;;;;;;;5.85;2.35;;;;;;;20.59;100.00;99836.53;4250382;33;20026;-71